Liuyang, China
Current Conditions -  °F | °C
As of 12:00 PM on Monday 20 Oct 2014 (Local Time) from ZGHA Reporting Station
Clear Clear  
Wind Chill: 88°   Ceiling: Unl
Heat Index: 88°   Visibility: 6mi
Dew Point: 59°   Wind: 13mph
Humidity: 38%   Direction: 200°SSW
Pressure: 29.88"   Gusts: NA
Location:  28.15°N, 113.63°E
Report Text: ZGHA 200400Z 20006MPS 170V230 CAVOK 31/15 Q1012 NOSIG
Loading
Personal Weather Stations






























Interactive Weather Map
Tropical Storm Tracking
New forecast layout! Learn more

10-Day Weather Forecast

Advertisements
Track Severe Weather on mobile